createdAt,value
2022-11-14T00:01:13.633Z,15.90
2022-11-14T00:03:40.495Z,15.48
2022-11-14T00:06:08.239Z,15.70
2022-11-14T00:08:35.848Z,15.57
2022-11-14T00:11:03.425Z,16.25
2022-11-14T00:13:30.249Z,15.25
2022-11-14T00:15:56.863Z,16.13
2022-11-14T00:18:23.862Z,16.25
2022-11-14T00:20:52.236Z,16.13
2022-11-14T00:23:21.058Z,17.20
2022-11-14T00:25:48.521Z,18.63
2022-11-14T00:28:15.472Z,15.85
2022-11-14T00:30:45.963Z,17.63
2022-11-14T00:33:17.182Z,18.90
2022-11-14T00:35:54.971Z,18.02
2022-11-14T00:38:22.323Z,16.65
2022-11-14T00:40:49.147Z,18.13
2022-11-14T00:43:16.154Z,15.73
2022-11-14T00:45:45.066Z,17.88
2022-11-14T00:48:11.883Z,18.15
2022-11-14T00:50:39.025Z,17.10
2022-11-14T00:53:06.037Z,17.05
2022-11-14T00:55:32.991Z,16.83
2022-11-14T00:57:59.686Z,17.50
2022-11-14T01:00:26.554Z,17.45
2022-11-14T01:02:56.746Z,15.30
2022-11-14T01:05:25.243Z,14.63
2022-11-14T01:07:52.173Z,15.95
2022-11-14T01:10:20.046Z,15.80
2022-11-14T01:12:46.877Z,14.90
2022-11-14T01:15:14.264Z,14.52
2022-11-14T01:17:40.992Z,14.52
2022-11-14T01:20:08.243Z,14.95
2022-11-14T01:22:35.094Z,15.15
2022-11-14T01:25:09.009Z,15.80
2022-11-14T01:27:35.726Z,15.40
2022-11-14T01:30:03.493Z,16.13
2022-11-14T01:32:30.181Z,14.85
2022-11-14T01:34:56.898Z,14.02
2022-11-14T01:37:23.882Z,14.43
2022-11-14T01:39:50.564Z,13.00
2022-11-14T01:42:17.840Z,13.18
2022-11-14T01:44:46.872Z,12.98
2022-11-14T01:47:19.232Z,11.23
2022-11-14T01:49:50.073Z,11.77
2022-11-14T01:52:25.392Z,10.90
2022-11-14T01:54:55.431Z,10.98
2022-11-14T01:57:30.020Z,11.75
2022-11-14T02:00:01.486Z,10.45
2022-11-14T02:02:28.528Z,10.13
2022-11-14T02:05:05.698Z,11.40
2022-11-14T02:07:35.774Z,11.55
2022-11-14T02:10:10.743Z,11.15
2022-11-14T02:12:38.368Z,11.20
2022-11-14T02:15:05.770Z,11.43
2022-11-14T02:17:32.936Z,11.30
2022-11-14T02:20:10.442Z,10.10
2022-11-14T02:22:38.771Z,12.10
2022-11-14T02:25:06.977Z,11.55
2022-11-14T02:27:34.954Z,12.30
2022-11-14T02:30:13.829Z,12.48
2022-11-14T02:33:08.784Z,14.30
2022-11-14T02:35:27.701Z,12.40
2022-11-14T02:37:54.654Z,12.93
2022-11-14T02:40:21.667Z,12.52
2022-11-14T02:42:48.352Z,14.07
2022-11-14T02:45:15.342Z,13.50
2022-11-14T02:47:41.982Z,12.98
2022-11-14T02:50:09.570Z,15.15
2022-11-14T02:52:36.533Z,13.73
2022-11-14T02:55:04.752Z,13.48
2022-11-14T02:57:31.462Z,13.57
2022-11-14T02:59:58.483Z,14.55
2022-11-14T03:02:25.979Z,13.65
2022-11-14T03:04:53.155Z,12.60
2022-11-14T03:07:20.094Z,12.63
2022-11-14T03:09:47.159Z,13.07
2022-11-14T03:12:19.152Z,13.00
2022-11-14T03:14:46.079Z,14.07
2022-11-14T03:17:13.055Z,14.18
2022-11-14T03:19:39.843Z,13.40
2022-11-14T03:22:06.862Z,13.70
2022-11-14T03:24:33.955Z,12.70
2022-11-14T03:27:00.995Z,12.77
2022-11-14T03:29:28.041Z,13.27
2022-11-14T03:31:55.002Z,12.05
2022-11-14T03:34:21.672Z,14.57
2022-11-14T03:36:48.682Z,14.38
2022-11-14T03:39:15.332Z,13.40
2022-11-14T03:41:41.979Z,13.55
2022-11-14T03:44:09.064Z,12.85
2022-11-14T03:46:36.062Z,13.00
2022-11-14T03:49:02.824Z,14.88
2022-11-14T03:51:29.750Z,13.18
2022-11-14T03:53:56.405Z,13.48
2022-11-14T03:56:23.491Z,13.38
2022-11-14T03:58:50.504Z,13.25
2022-11-14T04:01:17.304Z,12.68
2022-11-14T04:03:44.392Z,14.60
2022-11-14T04:06:11.226Z,13.02
2022-11-14T04:08:41.502Z,12.60
2022-11-14T04:11:08.537Z,12.55
2022-11-14T04:13:35.248Z,12.82
2022-11-14T04:16:01.948Z,12.63
2022-11-14T04:18:29.256Z,13.55
2022-11-14T04:20:56.447Z,13.77
2022-11-14T04:23:23.499Z,11.93
2022-11-14T04:25:50.495Z,9.90
2022-11-14T04:28:17.543Z,11.88
2022-11-14T04:30:45.548Z,12.35
2022-11-14T04:33:12.446Z,11.13
2022-11-14T04:35:39.266Z,11.10
2022-11-14T04:38:06.166Z,11.27
2022-11-14T04:40:33.184Z,11.23
2022-11-14T04:42:59.970Z,13.43
2022-11-14T04:45:27.138Z,13.48
2022-11-14T04:47:53.963Z,11.88
2022-11-14T04:50:21.187Z,13.00
2022-11-14T04:52:51.861Z,12.23
2022-11-14T04:55:18.791Z,13.13
2022-11-14T04:57:45.843Z,12.18
2022-11-14T05:00:14.118Z,13.32
2022-11-14T05:02:41.100Z,12.52
2022-11-14T05:05:08.535Z,11.27
2022-11-14T05:07:35.339Z,12.88
2022-11-14T05:10:02.281Z,10.50
2022-11-14T05:12:29.352Z,12.68
2022-11-14T05:14:56.632Z,11.70
2022-11-14T05:17:23.551Z,12.82
2022-11-14T05:19:50.700Z,11.63
2022-11-14T05:22:17.862Z,12.18
2022-11-14T05:24:44.586Z,11.13
2022-11-14T05:27:11.633Z,12.35
2022-11-14T05:29:39.466Z,11.85
2022-11-14T05:32:06.113Z,11.82
2022-11-14T05:34:32.773Z,11.02
2022-11-14T05:36:59.806Z,12.05
2022-11-14T05:39:26.889Z,11.88
2022-11-14T05:41:53.571Z,11.48
2022-11-14T05:44:20.524Z,11.98
2022-11-14T05:46:47.174Z,11.82
2022-11-14T05:49:17.895Z,12.43
2022-11-14T05:51:47.416Z,14.13
2022-11-14T05:54:14.513Z,12.25
2022-11-14T05:56:41.591Z,13.95
2022-11-14T05:59:08.556Z,11.05
2022-11-14T06:01:35.227Z,12.13
2022-11-14T06:04:06.031Z,12.32
2022-11-14T06:06:33.058Z,11.77
2022-11-14T06:09:00.044Z,11.45
2022-11-14T06:11:26.688Z,12.77
2022-11-14T06:13:53.525Z,10.88
2022-11-14T06:16:26.128Z,10.68
2022-11-14T06:18:54.041Z,11.48
2022-11-14T06:21:24.028Z,10.55
2022-11-14T06:26:30.276Z,11.07
2022-11-14T06:28:58.239Z,11.82
2022-11-14T06:31:26.038Z,10.85
2022-11-14T06:33:53.105Z,11.55
2022-11-14T06:36:37.326Z,10.25
2022-11-14T06:39:04.506Z,18.50
2022-11-14T06:41:31.135Z,76.78
2022-11-14T06:43:58.129Z,36.83
2022-11-14T06:46:25.082Z,30.73
2022-11-14T06:48:52.626Z,27.73
2022-11-14T06:51:19.799Z,24.67
2022-11-14T06:53:46.664Z,18.67
2022-11-14T06:56:15.963Z,15.85
2022-11-14T07:01:17.988Z,14.00
2022-11-14T07:03:45.808Z,15.23
2022-11-14T07:06:16.079Z,14.02
2022-11-14T07:08:42.831Z,13.73
2022-11-14T07:11:25.378Z,12.40
2022-11-14T07:13:54.293Z,13.13
2022-11-14T07:16:23.863Z,12.52
2022-11-14T07:18:50.661Z,17.00
2022-11-14T07:21:18.438Z,14.77
2022-11-14T07:23:45.097Z,17.30
2022-11-14T07:26:12.383Z,13.88
2022-11-14T07:28:47.037Z,13.00
2022-11-14T07:31:19.277Z,15.25
2022-11-14T07:33:47.934Z,13.13
2022-11-14T07:36:16.601Z,11.48
2022-11-14T07:38:43.620Z,13.98
2022-11-14T07:41:15.747Z,11.52
2022-11-14T07:43:43.353Z,12.98
2022-11-14T07:46:15.563Z,12.55
2022-11-14T07:48:43.008Z,12.07
2022-11-14T07:51:15.862Z,13.73
2022-11-14T07:53:43.000Z,13.10
2022-11-14T07:56:10.382Z,12.32
2022-11-14T07:58:41.708Z,15.85
2022-11-14T08:01:11.178Z,13.52
2022-11-14T08:03:43.993Z,14.68
2022-11-14T08:06:14.775Z,13.95
2022-11-14T08:08:41.798Z,12.98
2022-11-14T08:11:08.834Z,14.30
2022-11-14T08:13:35.703Z,15.35
2022-11-14T08:16:12.281Z,16.27
2022-11-14T08:18:40.220Z,13.77
2022-11-14T08:21:07.520Z,15.27
2022-11-14T08:23:34.505Z,21.55
2022-11-14T08:26:01.591Z,18.10
2022-11-14T08:28:28.835Z,33.08
2022-11-14T08:31:00.947Z,21.27
2022-11-14T08:33:28.128Z,17.58
2022-11-14T08:35:55.931Z,39.40
2022-11-14T08:38:22.967Z,41.42
2022-11-14T08:40:50.020Z,19.23
2022-11-14T08:43:17.024Z,28.52
2022-11-14T08:45:44.133Z,21.30
2022-11-14T08:48:11.529Z,35.15
2022-11-14T08:50:38.565Z,57.90
2022-11-14T08:53:05.625Z,20.85
2022-11-14T08:55:32.712Z,25.70
2022-11-14T08:58:00.575Z,20.30
2022-11-14T09:00:27.294Z,21.75
2022-11-14T09:02:54.258Z,17.13
2022-11-14T09:05:22.125Z,19.00
2022-11-14T09:07:49.994Z,14.18
2022-11-14T09:10:17.095Z,20.75
2022-11-14T09:12:44.889Z,22.58
2022-11-14T09:15:11.992Z,27.90
2022-11-14T09:17:38.939Z,23.75
2022-11-14T09:20:07.026Z,25.50
2022-11-14T09:22:33.905Z,21.83
2022-11-14T09:25:00.948Z,21.02
2022-11-14T09:27:28.083Z,25.77
2022-11-14T09:29:55.060Z,26.38
2022-11-14T09:32:22.084Z,22.27
2022-11-14T09:34:49.144Z,23.15
2022-11-14T09:37:16.188Z,17.88
2022-11-14T09:39:43.301Z,21.25
2022-11-14T09:42:45.877Z,20.83
2022-11-14T09:45:14.943Z,25.77
2022-11-14T09:47:44.084Z,20.80
2022-11-14T09:50:34.209Z,15.43
2022-11-14T09:53:11.859Z,20.45
2022-11-14T09:55:38.917Z,16.60
2022-11-14T09:58:14.213Z,17.20
2022-11-14T10:00:54.418Z,14.93
2022-11-14T10:04:09.459Z,17.58
2022-11-14T10:06:51.579Z,23.02
2022-11-14T10:09:37.088Z,26.42
2022-11-14T10:12:14.236Z,32.75
2022-11-14T10:15:11.521Z,21.15
2022-11-14T10:17:41.999Z,18.45
2022-11-14T10:20:29.145Z,28.52
2022-11-14T10:23:05.279Z,16.92
2022-11-14T10:25:53.680Z,22.98
2022-11-14T10:28:52.026Z,19.02
2022-11-14T10:32:12.679Z,18.85
2022-11-14T10:34:50.690Z,18.35
2022-11-14T10:37:37.329Z,19.95
2022-11-14T10:40:23.562Z,19.38
2022-11-14T10:42:56.845Z,22.05
2022-11-14T10:45:48.876Z,18.98
2022-11-14T10:48:34.713Z,18.33
2022-11-14T10:51:19.741Z,22.58
2022-11-14T10:54:20.877Z,20.25
2022-11-14T10:56:49.329Z,57.25
2022-11-14T10:59:16.855Z,35.33
2022-11-14T11:01:53.973Z,26.73
2022-11-14T11:04:32.607Z,25.48
2022-11-14T11:07:40.361Z,26.15
2022-11-14T11:10:37.308Z,23.17
2022-11-14T11:13:04.294Z,23.88
2022-11-14T11:15:38.513Z,24.88
2022-11-14T11:18:23.554Z,23.42
2022-11-14T11:21:09.272Z,33.90
2022-11-14T11:23:47.355Z,32.75
2022-11-14T11:26:24.957Z,26.08
2022-11-14T11:29:23.449Z,26.02
2022-11-14T11:31:58.459Z,28.42
2022-11-14T11:34:33.097Z,22.13
2022-11-14T11:37:21.815Z,24.42
2022-11-14T11:39:53.018Z,20.30
2022-11-14T11:43:36.616Z,19.42
2022-11-14T11:45:27.182Z,18.05
2022-11-14T11:48:19.083Z,18.60
2022-11-14T11:50:46.706Z,17.23
2022-11-14T11:53:28.488Z,18.13
2022-11-14T11:56:01.268Z,18.20
2022-11-14T11:58:44.389Z,18.00
2022-11-14T12:01:12.449Z,17.67
2022-11-14T12:03:41.552Z,20.17
2022-11-14T12:06:24.893Z,17.92
2022-11-14T12:09:01.905Z,18.52
2022-11-14T12:11:33.399Z,19.30
2022-11-14T12:14:18.898Z,18.38
2022-11-14T12:17:24.179Z,16.55
2022-11-14T12:20:29.207Z,19.15
2022-11-14T12:23:26.406Z,18.48
2022-11-14T12:26:34.635Z,18.77
2022-11-14T12:29:55.218Z,16.95
2022-11-14T12:32:38.481Z,19.55
2022-11-14T12:35:10.235Z,17.30
2022-11-14T12:37:44.049Z,18.13
2022-11-14T12:40:25.471Z,17.33
2022-11-14T12:42:53.681Z,18.00
2022-11-14T12:45:42.200Z,18.00
2022-11-14T12:48:22.522Z,17.77
2022-11-14T12:50:49.588Z,18.90
2022-11-14T12:53:38.062Z,18.98
2022-11-14T12:56:11.366Z,18.30
2022-11-14T12:59:03.332Z,19.95
2022-11-14T13:01:30.423Z,20.63
2022-11-14T13:04:32.142Z,22.40
2022-11-14T13:07:32.749Z,20.52
2022-11-14T13:10:13.125Z,19.50
2022-11-14T13:13:14.994Z,20.38
2022-11-14T13:16:11.953Z,19.70
2022-11-14T13:19:32.528Z,18.55
2022-11-14T13:22:37.091Z,17.27
2022-11-14T13:25:04.049Z,17.33
2022-11-14T13:28:05.141Z,17.20
2022-11-14T13:30:40.204Z,16.95
2022-11-14T13:33:07.712Z,17.75
2022-11-14T13:35:50.753Z,16.73
2022-11-14T13:38:29.460Z,16.80
2022-11-14T13:41:46.468Z,17.00
2022-11-14T13:44:32.588Z,15.98
2022-11-14T13:47:21.811Z,15.95
2022-11-14T13:50:12.261Z,16.98
2022-11-14T13:52:47.454Z,15.55
2022-11-14T13:55:46.547Z,15.25
2022-11-14T13:58:52.527Z,16.50
2022-11-14T14:01:39.992Z,14.13
2022-11-14T14:04:35.186Z,15.50
2022-11-14T14:07:19.881Z,16.27
2022-11-14T14:09:52.484Z,19.27
2022-11-14T14:12:40.036Z,15.57
2022-11-14T14:15:20.753Z,19.40
2022-11-14T14:18:08.374Z,27.23
2022-11-14T14:20:43.685Z,19.17
2022-11-14T14:23:31.383Z,23.88
2022-11-14T14:26:19.810Z,19.20
2022-11-14T14:29:17.504Z,20.00
2022-11-14T14:31:44.480Z,16.63
2022-11-14T14:34:29.655Z,22.17
2022-11-14T14:36:58.042Z,15.70
2022-11-14T14:39:27.027Z,15.13
2022-11-14T14:41:57.344Z,15.87
2022-11-14T14:44:29.897Z,17.52
2022-11-14T14:46:56.860Z,17.13
2022-11-14T14:49:36.550Z,19.63
2022-11-14T14:52:28.843Z,14.75
2022-11-14T14:54:56.632Z,20.33
2022-11-14T14:57:23.966Z,15.77
2022-11-14T15:00:08.322Z,19.90
2022-11-14T15:02:35.380Z,17.38
2022-11-14T15:05:05.111Z,15.55
2022-11-14T15:07:32.345Z,23.25
2022-11-14T15:10:03.782Z,15.63
2022-11-14T15:12:32.051Z,16.10
2022-11-14T15:15:00.597Z,16.55
2022-11-14T15:17:32.965Z,13.80
2022-11-14T15:20:02.823Z,14.63
2022-11-14T15:22:29.538Z,15.07
2022-11-14T15:25:14.069Z,14.32
2022-11-14T15:28:00.159Z,14.98
2022-11-14T15:30:33.397Z,15.02
2022-11-14T15:33:03.509Z,14.60
2022-11-14T15:35:35.796Z,14.43
2022-11-14T15:38:36.767Z,14.60
2022-11-14T15:43:42.957Z,13.50
2022-11-14T15:46:35.316Z,16.00
2022-11-14T15:49:19.078Z,14.00
2022-11-14T15:51:56.291Z,13.80
2022-11-14T15:54:28.111Z,15.07
2022-11-14T15:56:58.255Z,13.80
2022-11-14T15:59:26.757Z,15.55
2022-11-14T16:02:11.688Z,40.38
2022-11-14T16:04:44.466Z,14.80
2022-11-14T16:07:14.986Z,36.80
2022-11-14T16:09:41.923Z,42.30
2022-11-14T16:12:08.926Z,24.83
2022-11-14T16:14:36.146Z,22.95
2022-11-14T16:17:03.497Z,46.40
2022-11-14T16:19:30.539Z,31.33
2022-11-14T16:22:03.862Z,30.95
2022-11-14T16:24:34.339Z,28.88
2022-11-14T16:27:01.836Z,19.92
2022-11-14T16:29:29.015Z,23.17
2022-11-14T16:31:55.985Z,17.30
2022-11-14T16:34:26.680Z,17.30
2022-11-14T16:37:02.135Z,17.92
2022-11-14T16:39:29.740Z,21.58
2022-11-14T16:42:02.872Z,23.23
2022-11-14T16:44:30.506Z,22.08
2022-11-14T16:46:58.917Z,20.73
2022-11-14T16:49:25.774Z,20.98
2022-11-14T16:51:55.192Z,22.20
2022-11-14T16:54:21.947Z,19.27
2022-11-14T16:56:48.977Z,20.80
2022-11-14T16:59:16.073Z,22.33
2022-11-14T17:01:43.187Z,25.50
2022-11-14T17:04:10.122Z,27.23
2022-11-14T17:06:37.229Z,28.27
2022-11-14T17:09:04.203Z,29.13
2022-11-14T17:11:32.094Z,37.65
2022-11-14T17:13:59.111Z,49.03
2022-11-14T17:16:26.001Z,33.60
2022-11-14T17:18:54.505Z,41.10
2022-11-14T17:21:22.068Z,31.40
2022-11-14T17:24:01.293Z,30.45
2022-11-14T17:26:29.464Z,29.88
2022-11-14T17:28:56.623Z,29.40
2022-11-14T17:31:23.404Z,32.50
2022-11-14T17:33:52.300Z,27.90
2022-11-14T17:36:19.570Z,30.92
2022-11-14T17:38:46.371Z,28.90
2022-11-14T17:41:13.486Z,27.20
2022-11-14T17:43:40.883Z,30.17
2022-11-14T17:46:15.589Z,33.80
2022-11-14T17:48:46.658Z,46.05
2022-11-14T17:51:14.787Z,30.23
2022-11-14T17:53:42.781Z,26.98
2022-11-14T17:56:18.401Z,31.40
2022-11-14T17:58:46.563Z,26.88
2022-11-14T18:01:16.273Z,30.48
2022-11-14T18:03:43.084Z,27.20
2022-11-14T18:06:12.219Z,29.27
2022-11-14T18:08:39.256Z,24.88
2022-11-14T18:11:09.872Z,26.30
2022-11-14T18:13:37.050Z,24.30
2022-11-14T18:16:13.740Z,22.60
2022-11-14T18:18:41.063Z,24.33
2022-11-14T18:21:17.591Z,29.02
2022-11-14T18:23:49.950Z,26.65
2022-11-14T18:26:17.772Z,23.48
2022-11-14T18:28:45.148Z,28.85
2022-11-14T18:31:13.238Z,24.33
2022-11-14T18:33:41.460Z,23.35
2022-11-14T18:36:11.913Z,25.88
2022-11-14T18:38:39.374Z,23.98
2022-11-14T18:41:12.971Z,22.42
2022-11-14T18:43:40.011Z,25.25
2022-11-14T18:46:13.353Z,22.50
2022-11-14T18:48:41.750Z,22.35
2022-11-14T18:51:13.170Z,37.55
2022-11-14T18:53:40.188Z,61.50
2022-11-14T18:56:12.709Z,43.13
2022-11-14T18:58:41.337Z,28.45
2022-11-14T19:01:10.522Z,22.80
2022-11-14T19:03:37.392Z,32.47
2022-11-14T19:06:09.659Z,31.23
2022-11-14T19:08:36.523Z,28.13
2022-11-14T19:11:05.192Z,25.55
2022-11-14T19:13:32.333Z,28.73
2022-11-14T19:16:06.581Z,24.70
2022-11-14T19:18:34.363Z,28.85
2022-11-14T19:21:05.168Z,29.35
2022-11-14T19:23:33.659Z,27.17
2022-11-14T19:26:01.857Z,28.27
2022-11-14T19:28:32.127Z,28.05
2022-11-14T19:31:03.393Z,32.47
2022-11-14T19:33:30.898Z,30.38
2022-11-14T19:35:58.280Z,33.13
2022-11-14T19:38:25.193Z,31.40
2022-11-14T19:40:52.319Z,33.83
2022-11-14T19:43:19.521Z,35.30
2022-11-14T19:45:46.999Z,36.55
2022-11-14T19:48:13.753Z,36.13
2022-11-14T19:50:40.790Z,38.08
2022-11-14T19:53:07.814Z,36.95
2022-11-14T19:55:34.843Z,56.08
2022-11-14T19:58:02.743Z,49.63
2022-11-14T20:00:31.170Z,37.95
2022-11-14T20:02:58.742Z,46.60
2022-11-14T20:05:25.512Z,41.78
2022-11-14T20:07:54.075Z,39.08
2022-11-14T20:10:20.796Z,34.35
2022-11-14T20:12:47.485Z,47.53
2022-11-14T20:15:14.584Z,40.55
2022-11-14T20:17:41.577Z,37.45
2022-11-14T20:20:08.932Z,35.83
2022-11-14T20:22:35.715Z,37.10
2022-11-14T20:25:02.680Z,36.15
2022-11-14T20:27:29.384Z,37.47
2022-11-14T20:29:56.359Z,37.92
2022-11-14T20:32:23.030Z,34.78
2022-11-14T20:34:50.107Z,36.00
2022-11-14T20:37:17.096Z,37.60
2022-11-14T20:39:43.738Z,38.75
2022-11-14T20:42:10.392Z,35.35
2022-11-14T20:44:37.462Z,35.25
2022-11-14T20:47:08.492Z,33.83
2022-11-14T20:49:44.217Z,37.90
2022-11-14T20:52:12.144Z,33.72
2022-11-14T20:54:39.945Z,34.63
2022-11-14T20:57:06.627Z,35.65
2022-11-14T20:59:33.757Z,47.05
2022-11-14T21:02:00.743Z,47.83
2022-11-14T21:04:27.729Z,44.25
2022-11-14T21:06:54.406Z,35.15
2022-11-14T21:09:22.252Z,36.67
2022-11-14T21:11:49.280Z,37.47
2022-11-14T21:14:15.981Z,39.75
2022-11-14T21:16:44.665Z,33.35
2022-11-14T21:19:12.520Z,32.40
2022-11-14T21:21:39.603Z,34.58
2022-11-14T21:24:07.071Z,35.58
2022-11-14T21:26:37.770Z,35.58
2022-11-14T21:29:09.022Z,33.33
2022-11-14T21:31:41.688Z,32.45
2022-11-14T21:34:15.646Z,32.78
2022-11-14T21:36:45.431Z,35.17
2022-11-14T21:39:15.688Z,32.20
2022-11-14T21:41:43.572Z,32.67
2022-11-14T21:44:16.498Z,32.40
2022-11-14T21:46:46.345Z,32.05
2022-11-14T21:49:13.378Z,31.92
2022-11-14T21:51:40.262Z,30.70
2022-11-14T21:54:07.429Z,30.13
2022-11-14T21:56:35.880Z,31.17
2022-11-14T21:59:14.235Z,32.03
2022-11-14T22:02:02.363Z,28.88
2022-11-14T22:04:31.471Z,31.10
2022-11-14T22:06:59.876Z,32.40
2022-11-14T22:09:28.358Z,26.55
2022-11-14T22:11:55.658Z,28.88
2022-11-14T22:14:22.778Z,27.38
2022-11-14T22:16:49.667Z,25.30
2022-11-14T22:19:16.802Z,26.42
2022-11-14T22:21:43.755Z,26.25
2022-11-14T22:24:10.736Z,24.08
2022-11-14T22:26:39.963Z,23.83
2022-11-14T22:29:07.690Z,25.42
2022-11-14T22:31:35.203Z,23.83
2022-11-14T22:34:02.304Z,24.60
2022-11-14T22:36:29.549Z,22.92
2022-11-14T22:38:57.233Z,23.83
2022-11-14T22:41:32.234Z,25.20
2022-11-14T22:44:00.035Z,24.13
2022-11-14T22:46:27.472Z,23.25
2022-11-14T22:48:54.688Z,24.02
2022-11-14T22:51:28.172Z,22.60
2022-11-14T22:53:57.254Z,24.77
2022-11-14T22:56:26.975Z,23.85
2022-11-14T22:58:54.003Z,23.98
2022-11-14T23:01:23.721Z,21.83
2022-11-14T23:04:02.112Z,23.50
2022-11-14T23:06:30.291Z,22.40
2022-11-14T23:08:57.630Z,23.17
2022-11-14T23:11:27.702Z,22.20
2022-11-14T23:13:56.248Z,22.35
2022-11-14T23:16:25.850Z,22.92
2022-11-14T23:18:57.657Z,20.63
2022-11-14T23:21:27.671Z,20.83
2022-11-14T23:24:03.073Z,22.65
2022-11-14T23:26:31.045Z,20.85
2022-11-14T23:28:58.320Z,20.83
2022-11-14T23:31:26.928Z,21.15
2022-11-14T23:33:55.259Z,19.77
2022-11-14T23:36:22.507Z,20.77
2022-11-14T23:38:52.913Z,21.55
2022-11-14T23:41:25.718Z,21.60
2022-11-14T23:43:52.527Z,21.67
2022-11-14T23:46:19.515Z,21.08
2022-11-14T23:48:46.545Z,21.60
2022-11-14T23:51:13.770Z,21.77
2022-11-14T23:53:41.218Z,20.17
2022-11-14T23:56:13.017Z,23.00
2022-11-14T23:58:40.402Z,22.27
